Time;durP1;ratioP1;P1;durP2;ratioP2;P2;SDS_P1;SDS_P2;PMS_P1;PMS_P2;Temp;Humidity;BMP_temperature;BMP_pressure;BME280_temperature;BME280_humidity;BME280_pressure;Samples;Min_cycle;Max_cycle;Signal;HPM_P1;HPM_P2
2021/04/15 00:01:43;;;;;;;6.20;5.22;;;;;;;;;;5007114;28;20199;-79
2021/04/15 00:04:10;;;;;;;6.43;5.10;;;;;;;;;;4998299;28;20180;-79
2021/04/15 00:06:36;;;;;;;6.93;5.55;;;;;;;;;;4993644;28;20635;-80
2021/04/15 00:09:20;;;;;;;5.97;5.30;;;;;;;;;;5005591;28;20183;-79
2021/04/15 00:11:46;;;;;;;7.38;5.68;;;;;;;;;;5005296;28;20514;-79
2021/04/15 00:14:14;;;;;;;8.27;5.60;;;;;;;;;;5006205;28;20239;-79
2021/04/15 00:16:40;;;;;;;6.00;5.40;;;;;;;;;;5002193;28;20167;-79
2021/04/15 00:19:07;;;;;;;6.68;5.85;;;;;;;;;;5003830;28;20198;-79
2021/04/15 00:21:33;;;;;;;10.18;6.60;;;;;;;;;;5001507;28;20211;-79
2021/04/15 00:23:59;;;;;;;6.78;5.50;;;;;;;;;;5005841;28;20185;-80
2021/04/15 00:26:26;;;;;;;7.85;7.05;;;;;;;;;;5004185;28;20187;-80
2021/04/15 00:28:53;;;;;;;13.85;5.60;;;;;;;;;;5006196;28;20226;-79
2021/04/15 00:31:19;;;;;;;7.50;5.85;;;;;;;;;;5002037;28;20642;-79
2021/04/15 00:33:45;;;;;;;8.50;5.90;;;;;;;;;;5001209;28;20195;-79
2021/04/15 00:36:12;;;;;;;6.53;5.43;;;;;;;;;;5005567;28;20187;-80
2021/04/15 00:38:38;;;;;;;6.63;5.85;;;;;;;;;;5005426;28;20187;-79
2021/04/15 00:41:05;;;;;;;20.13;7.57;;;;;;;;;;5004522;28;20179;-79
2021/04/15 00:43:33;;;;;;;7.53;6.35;;;;;;;;;;4998592;28;20180;-79
2021/04/15 00:46:01;;;;;;;6.78;6.03;;;;;;;;;;4999352;28;20268;-79
2021/04/15 00:48:33;;;;;;;7.68;5.43;;;;;;;;;;4998282;28;20201;-79
2021/04/15 00:51:02;;;;;;;6.30;5.60;;;;;;;;;;4993889;28;20270;-79
2021/04/15 00:53:30;;;;;;;9.77;6.80;;;;;;;;;;4994891;28;20183;-79
2021/04/15 00:55:56;;;;;;;7.28;5.28;;;;;;;;;;5004496;28;20183;-79
2021/04/15 00:58:22;;;;;;;7.28;5.10;;;;;;;;;;5004196;28;20588;-78
2021/04/15 01:00:48;;;;;;;7.13;6.07;;;;;;;;;;4998947;28;20218;-79
2021/04/15 01:03:14;;;;;;;8.35;5.65;;;;;;;;;;4996730;28;20195;-78
2021/04/15 01:05:45;;;;;;;8.70;6.55;;;;;;;;;;5002257;28;20193;-79
2021/04/15 01:08:11;;;;;;;6.85;5.63;;;;;;;;;;5003161;28;20190;-79
2021/04/15 01:10:39;;;;;;;6.35;5.10;;;;;;;;;;5005463;28;20190;-79
2021/04/15 01:13:16;;;;;;;12.18;5.30;;;;;;;;;;5005172;28;20259;-79
2021/04/15 01:15:47;;;;;;;10.38;5.38;;;;;;;;;;5004461;28;20194;-79
2021/04/15 01:18:26;;;;;;;7.90;5.40;;;;;;;;;;5004588;28;20265;-79
2021/04/15 01:21:06;;;;;;;6.05;5.20;;;;;;;;;;5003463;28;20218;-79
2021/04/15 01:23:49;;;;;;;7.53;5.25;;;;;;;;;;5007637;28;20211;-79
2021/04/15 01:26:28;;;;;;;8.15;5.70;;;;;;;;;;4992780;28;20175;-79
2021/04/15 01:29:09;;;;;;;6.82;6.03;;;;;;;;;;5000037;28;20241;-79
2021/04/15 01:31:48;;;;;;;6.20;5.63;;;;;;;;;;5003474;28;20187;-79
2021/04/15 01:34:14;;;;;;;5.43;4.80;;;;;;;;;;4996144;28;20214;-78
2021/04/15 01:36:54;;;;;;;7.70;5.68;;;;;;;;;;5004246;28;20676;-79
2021/04/15 01:39:24;;;;;;;6.63;5.20;;;;;;;;;;4999758;28;20266;-78
2021/04/15 01:42:02;;;;;;;9.32;5.55;;;;;;;;;;5002734;28;20270;-79
2021/04/15 01:44:31;;;;;;;7.40;5.60;;;;;;;;;;4989781;28;20201;-79
2021/04/15 01:46:59;;;;;;;12.40;7.88;;;;;;;;;;5003473;28;20175;-78
2021/04/15 01:49:25;;;;;;;7.25;5.57;;;;;;;;;;5003493;28;20213;-79
2021/04/15 01:51:52;;;;;;;5.85;4.70;;;;;;;;;;4999838;28;20191;-79
2021/04/15 01:54:21;;;;;;;8.13;5.55;;;;;;;;;;5004363;28;20187;-79
2021/04/15 01:56:50;;;;;;;8.50;6.13;;;;;;;;;;5003847;28;20187;-79
2021/04/15 01:59:21;;;;;;;7.85;5.60;;;;;;;;;;4992330;28;20190;-79
2021/04/15 02:01:52;;;;;;;11.23;6.63;;;;;;;;;;5000202;28;20217;-79
2021/04/15 02:04:24;;;;;;;10.48;6.88;;;;;;;;;;5003709;28;20187;-80
2021/04/15 02:07:02;;;;;;;7.70;6.50;;;;;;;;;;5003393;28;20195;-79
2021/04/15 02:09:28;;;;;;;7.35;6.00;;;;;;;;;;4999152;28;21474;-79
2021/04/15 02:12:03;;;;;;;9.43;7.18;;;;;;;;;;4992292;28;20187;-79
2021/04/15 02:14:34;;;;;;;8.23;6.82;;;;;;;;;;4999500;28;20179;-80
2021/04/15 02:17:00;;;;;;;7.50;6.53;;;;;;;;;;5001056;28;20183;-79
2021/04/15 02:19:32;;;;;;;9.88;6.80;;;;;;;;;;5002943;28;20325;-78
2021/04/15 02:22:04;;;;;;;10.63;7.22;;;;;;;;;;5003210;28;20203;-79
2021/04/15 02:24:37;;;;;;;11.95;7.18;;;;;;;;;;4998369;28;20187;-79
2021/04/15 02:27:06;;;;;;;10.18;6.75;;;;;;;;;;4993637;28;20190;-79
2021/04/15 02:29:35;;;;;;;9.75;7.50;;;;;;;;;;5003862;28;20219;-79
2021/04/15 02:32:06;;;;;;;14.70;7.78;;;;;;;;;;4991640;28;20208;-79
2021/04/15 02:34:37;;;;;;;9.43;7.57;;;;;;;;;;4993414;28;20602;-78
2021/04/15 02:37:11;;;;;;;10.90;8.55;;;;;;;;;;5000948;28;20183;-79
2021/04/15 02:39:43;;;;;;;11.65;7.43;;;;;;;;;;5002672;28;20229;-79
2021/04/15 02:42:11;;;;;;;8.40;6.70;;;;;;;;;;5002738;28;20214;-79
2021/04/15 02:44:53;;;;;;;13.95;8.20;;;;;;;;;;5003240;28;20175;-79
2021/04/15 02:47:21;;;;;;;12.35;8.35;;;;;;;;;;5002867;28;20182;-79
2021/04/15 02:49:50;;;;;;;10.05;7.95;;;;;;;;;;4994918;28;20176;-79
2021/04/15 02:52:22;;;;;;;11.52;8.57;;;;;;;;;;5001914;28;20241;-79
2021/04/15 02:54:57;;;;;;;11.73;9.20;;;;;;;;;;4999519;28;20209;-79
2021/04/15 02:57:24;;;;;;;12.75;9.82;;;;;;;;;;4998728;28;20218;-79
2021/04/15 02:59:55;;;;;;;14.95;9.60;;;;;;;;;;5001874;28;20210;-79
2021/04/15 03:02:32;;;;;;;11.98;10.38;;;;;;;;;;4995787;28;20209;-79
2021/04/15 03:05:00;;;;;;;11.70;8.40;;;;;;;;;;4998148;28;20190;-79
2021/04/15 03:07:27;;;;;;;14.52;9.75;;;;;;;;;;4998735;28;20190;-79
2021/04/15 03:09:53;;;;;;;12.55;9.10;;;;;;;;;;4997131;28;20205;-79
2021/04/15 03:12:21;;;;;;;13.10;8.93;;;;;;;;;;4993172;28;20183;-78
2021/04/15 03:14:50;;;;;;;10.13;8.50;;;;;;;;;;5002930;28;20194;-79
2021/04/15 03:17:18;;;;;;;13.20;8.65;;;;;;;;;;4992325;28;20183;-79
2021/04/15 03:19:50;;;;;;;13.60;9.13;;;;;;;;;;5002737;28;20542;-79
2021/04/15 03:22:24;;;;;;;16.30;10.30;;;;;;;;;;5002010;28;20210;-79
2021/04/15 03:24:52;;;;;;;11.70;9.27;;;;;;;;;;5003045;28;20261;-79
2021/04/15 03:27:24;;;;;;;12.45;9.48;;;;;;;;;;4999021;28;20190;-80
2021/04/15 03:29:55;;;;;;;15.63;10.25;;;;;;;;;;5001605;28;20234;-79
2021/04/15 03:32:23;;;;;;;12.88;10.30;;;;;;;;;;4997700;28;20206;-79
2021/04/15 03:34:52;;;;;;;14.30;10.00;;;;;;;;;;4998532;28;20206;-79
2021/04/15 03:37:22;;;;;;;13.95;9.85;;;;;;;;;;4997009;28;20268;-79
2021/04/15 03:39:48;;;;;;;11.55;9.63;;;;;;;;;;4998765;28;20195;-79
2021/04/15 03:42:33;;;;;;;14.20;10.63;;;;;;;;;;5002365;28;20234;-79
2021/04/15 03:45:05;;;;;;;11.40;9.15;;;;;;;;;;5004032;28;20214;-79
2021/04/15 03:47:37;;;;;;;11.70;9.65;;;;;;;;;;5025629;28;20203;-79
2021/04/15 03:50:06;;;;;;;11.82;10.52;;;;;;;;;;4995951;28;20239;-80
2021/04/15 03:52:35;;;;;;;15.38;9.23;;;;;;;;;;4997162;28;20176;-79
2021/04/15 03:55:21;;;;;;;17.58;11.18;;;;;;;;;;4996384;28;20184;-79
2021/04/15 03:57:48;;;;;;;14.18;10.43;;;;;;;;;;4996453;28;20198;-80
2021/04/15 04:00:16;;;;;;;13.68;10.48;;;;;;;;;;4995349;28;20335;-81
2021/04/15 04:02:44;;;;;;;12.30;9.65;;;;;;;;;;5005738;28;20215;-79
2021/04/15 04:05:13;;;;;;;13.32;9.63;;;;;;;;;;4998987;28;20247;-79
2021/04/15 04:07:42;;;;;;;13.07;9.52;;;;;;;;;;5006786;28;20174;-79
2021/04/15 04:10:10;;;;;;;11.73;9.60;;;;;;;;;;5001567;28;20175;-79
2021/04/15 04:12:59;;;;;;;14.75;10.43;;;;;;;;;;5005918;28;20550;-79
2021/04/15 04:15:27;;;;;;;12.43;8.80;;;;;;;;;;5007742;28;20291;-79
2021/04/15 04:18:14;;;;;;;14.98;9.45;;;;;;;;;;5004885;28;20206;-80
2021/04/15 04:20:41;;;;;;;16.85;10.90;;;;;;;;;;4990964;28;20187;-79
2021/04/15 04:23:27;;;;;;;15.43;10.25;;;;;;;;;;5005659;28;20780;-79
2021/04/15 04:25:53;;;;;;;11.05;9.75;;;;;;;;;;4992938;28;20266;-79
2021/04/15 04:28:19;;;;;;;13.48;9.93;;;;;;;;;;5003281;28;20191;-79
2021/04/15 04:30:50;;;;;;;15.07;10.30;;;;;;;;;;5001212;28;20199;-80
2021/04/15 04:33:18;;;;;;;13.80;9.20;;;;;;;;;;5002963;28;20438;-80
2021/04/15 04:35:46;;;;;;;16.27;10.82;;;;;;;;;;4992275;28;20203;-81
2021/04/15 04:38:13;;;;;;;14.68;11.02;;;;;;;;;;4992597;28;20287;-80
2021/04/15 04:40:41;;;;;;;13.55;8.85;;;;;;;;;;4996048;28;20648;-80
2021/04/15 04:43:12;;;;;;;13.88;10.60;;;;;;;;;;4996904;28;20246;-80
2021/04/15 04:45:38;;;;;;;12.50;10.15;;;;;;;;;;4997105;28;20191;-81
2021/04/15 04:48:04;;;;;;;14.82;10.50;;;;;;;;;;4992469;28;20175;-80
2021/04/15 04:50:37;;;;;;;16.10;10.65;;;;;;;;;;4999646;28;20206;-79
2021/04/15 04:53:08;;;;;;;12.80;10.20;;;;;;;;;;4986492;28;20179;-79
2021/04/15 04:55:40;;;;;;;12.25;9.77;;;;;;;;;;5000696;28;20183;-80
2021/04/15 04:58:14;;;;;;;12.07;9.43;;;;;;;;;;5007196;28;20554;-79
2021/04/15 05:00:45;;;;;;;12.30;9.85;;;;;;;;;;4988991;28;20192;-80
2021/04/15 05:03:11;;;;;;;15.40;9.98;;;;;;;;;;5010804;28;20227;-80
2021/04/15 05:05:37;;;;;;;15.00;10.38;;;;;;;;;;5000672;28;20188;-79
2021/04/15 05:08:11;;;;;;;9.88;8.80;;;;;;;;;;5004159;28;20258;-79
2021/04/15 05:10:37;;;;;;;14.48;10.55;;;;;;;;;;5011434;28;20611;-80
2021/04/15 05:13:21;;;;;;;17.80;10.63;;;;;;;;;;4995679;28;20547;-80
2021/04/15 05:15:47;;;;;;;13.52;10.20;;;;;;;;;;4996518;28;20256;-79
2021/04/15 05:18:16;;;;;;;18.25;11.80;;;;;;;;;;5000870;28;20188;-79
2021/04/15 05:20:42;;;;;;;17.27;10.20;;;;;;;;;;4994614;28;20278;-80
2021/04/15 05:23:20;;;;;;;14.82;10.25;;;;;;;;;;5003036;28;20195;-80
2021/04/15 05:26:00;;;;;;;13.30;9.90;;;;;;;;;;5005802;28;20171;-79
2021/04/15 05:28:27;;;;;;;16.23;11.20;;;;;;;;;;4997316;28;20227;-79
2021/04/15 05:30:53;;;;;;;11.80;10.13;;;;;;;;;;4998576;28;20184;-79
2021/04/15 05:33:21;;;;;;;14.50;11.20;;;;;;;;;;4994887;28;20187;-79
2021/04/15 05:36:13;;;;;;;16.50;10.90;;;;;;;;;;5004103;28;20183;-79
2021/04/15 05:38:41;;;;;;;15.13;11.77;;;;;;;;;;4984251;28;20195;-79
2021/04/15 05:41:09;;;;;;;19.95;10.85;;;;;;;;;;4984454;28;20191;-79
2021/04/15 05:43:39;;;;;;;14.98;10.52;;;;;;;;;;4996839;28;20296;-79
2021/04/15 05:46:13;;;;;;;16.83;11.73;;;;;;;;;;4980439;28;20195;-79
2021/04/15 05:48:40;;;;;;;17.70;11.18;;;;;;;;;;4998699;28;20598;-79
2021/04/15 05:51:09;;;;;;;18.10;12.15;;;;;;;;;;4983526;28;20214;-79
2021/04/15 05:53:41;;;;;;;12.98;10.45;;;;;;;;;;4997093;28;20184;-79
2021/04/15 05:56:07;;;;;;;16.67;11.35;;;;;;;;;;4995608;28;20188;-79
2021/04/15 05:58:52;;;;;;;12.60;10.13;;;;;;;;;;4992620;28;20179;-80
2021/04/15 06:01:23;;;;;;;14.63;11.88;;;;;;;;;;4994280;28;20447;-80
2021/04/15 06:03:54;;;;;;;12.65;9.65;;;;;;;;;;4994424;28;20179;-80
2021/04/15 06:06:22;;;;;;;11.93;10.63;;;;;;;;;;4994134;28;20298;-80
2021/04/15 06:08:49;;;;;;;12.95;9.68;;;;;;;;;;4989790;28;20191;-80
2021/04/15 06:11:21;;;;;;;15.45;11.10;;;;;;;;;;4996595;28;20179;-80
2021/04/15 06:13:49;;;;;;;13.68;11.40;;;;;;;;;;4983917;28;20171;-81
2021/04/15 06:16:21;;;;;;;13.73;10.65;;;;;;;;;;5007303;28;20195;-80
2021/04/15 06:18:50;;;;;;;15.60;10.70;;;;;;;;;;4999380;28;20190;-79
2021/04/15 06:21:22;;;;;;;15.77;10.50;;;;;;;;;;4998173;28;20195;-80
2021/04/15 06:23:55;;;;;;;14.70;10.95;;;;;;;;;;5003787;28;20219;-82
2021/04/15 06:26:32;;;;;;;16.00;10.77;;;;;;;;;;5012995;28;20201;-80
2021/04/15 06:29:02;;;;;;;12.75;10.02;;;;;;;;;;4989364;28;20230;-81
2021/04/15 06:31:30;;;;;;;14.60;12.10;;;;;;;;;;5003512;28;20262;-80
2021/04/15 06:34:01;;;;;;;14.60;11.55;;;;;;;;;;5003287;28;20210;-81
2021/04/15 06:36:33;;;;;;;16.90;12.40;;;;;;;;;;5003653;28;20195;-80
2021/04/15 06:39:17;;;;;;;14.68;11.20;;;;;;;;;;4998167;28;20580;-80
2021/04/15 06:41:52;;;;;;;18.35;12.40;;;;;;;;;;4997179;28;20273;-80
2021/04/15 06:44:37;;;;;;;13.25;11.10;;;;;;;;;;5000526;28;20186;-80
2021/04/15 06:47:19;;;;;;;19.02;12.32;;;;;;;;;;5001618;28;20221;-78
2021/04/15 06:49:51;;;;;;;14.23;11.82;;;;;;;;;;5000298;28;20234;-80
2021/04/15 06:52:20;;;;;;;17.13;12.57;;;;;;;;;;5011822;28;20237;-79
2021/04/15 06:54:55;;;;;;;13.20;10.80;;;;;;;;;;4993886;28;20250;-79
2021/04/15 06:57:22;;;;;;;15.98;12.40;;;;;;;;;;4998975;28;20236;-78
2021/04/15 07:00:06;;;;;;;14.93;11.32;;;;;;;;;;4997655;28;20190;-78
2021/04/15 07:02:47;;;;;;;16.80;11.85;;;;;;;;;;4999759;28;20680;-78
2021/04/15 07:05:16;;;;;;;17.02;13.05;;;;;;;;;;5000372;28;20250;-80
2021/04/15 07:07:47;;;;;;;16.92;12.30;;;;;;;;;;4997948;28;20221;-80
2021/04/15 07:10:13;;;;;;;20.23;14.85;;;;;;;;;;4999490;28;20198;-80
2021/04/15 07:13:02;;;;;;;17.85;13.27;;;;;;;;;;5000027;28;20202;-78
2021/04/15 07:15:33;;;;;;;16.55;13.18;;;;;;;;;;4997863;28;20187;-79
2021/04/15 07:18:23;;;;;;;17.45;12.60;;;;;;;;;;4991358;28;20190;-79
2021/04/15 07:21:13;;;;;;;17.38;12.52;;;;;;;;;;4994016;28;20199;-78
2021/04/15 07:23:48;;;;;;;19.92;15.20;;;;;;;;;;4998570;28;20179;-79
2021/04/15 07:26:20;;;;;;;20.13;13.75;;;;;;;;;;4999166;28;20202;-80
2021/04/15 07:28:55;;;;;;;17.33;13.88;;;;;;;;;;5006780;28;20222;-79
2021/04/15 07:31:22;;;;;;;16.90;12.90;;;;;;;;;;5000987;28;20179;-79
2021/04/15 07:33:48;;;;;;;18.95;13.98;;;;;;;;;;5002406;28;20180;-79
2021/04/15 07:36:27;;;;;;;16.33;13.13;;;;;;;;;;5002586;28;20217;-78
2021/04/15 07:39:03;;;;;;;16.00;14.30;;;;;;;;;;5003930;28;20171;-79
2021/04/15 07:41:48;;;;;;;16.30;12.80;;;;;;;;;;4991371;28;20218;-79
2021/04/15 07:44:29;;;;;;;17.85;14.00;;;;;;;;;;5004195;28;25193;-79
2021/04/15 07:47:10;;;;;;;19.58;14.00;;;;;;;;;;4991752;28;20195;-78
2021/04/15 07:49:39;;;;;;;18.88;14.52;;;;;;;;;;4993322;28;20180;-78
2021/04/15 07:52:33;;;;;;;17.70;14.60;;;;;;;;;;5003856;28;20190;-80
2021/04/15 07:55:14;;;;;;;19.00;14.55;;;;;;;;;;4997529;28;20198;-80
2021/04/15 07:57:49;;;;;;;20.30;15.40;;;;;;;;;;4993572;28;20195;-80
2021/04/15 08:00:29;;;;;;;19.65;14.30;;;;;;;;;;4998889;28;20190;-78
2021/04/15 08:03:04;;;;;;;20.65;14.80;;;;;;;;;;4995060;28;20305;-78
2021/04/15 08:05:51;;;;;;;19.60;14.45;;;;;;;;;;5014468;28;20198;-80
2021/04/15 08:08:17;;;;;;;15.65;12.95;;;;;;;;;;4994689;28;20190;-79
2021/04/15 08:10:53;;;;;;;15.30;13.10;;;;;;;;;;4997983;28;20191;-79
2021/04/15 08:13:45;;;;;;;18.65;13.70;;;;;;;;;;4996525;28;20184;-78
2021/04/15 08:16:20;;;;;;;14.15;10.40;;;;;;;;;;4995443;28;20187;-79
2021/04/15 08:19:09;;;;;;;14.48;12.32;;;;;;;;;;5002750;28;20198;-78
2021/04/15 08:21:55;;;;;;;14.60;12.65;;;;;;;;;;5004576;28;20222;-80
2021/04/15 08:24:21;;;;;;;14.70;12.52;;;;;;;;;;5004734;28;20195;-80
2021/04/15 08:26:56;;;;;;;16.73;12.47;;;;;;;;;;5002951;28;20190;-81
2021/04/15 08:29:43;;;;;;;11.85;10.65;;;;;;;;;;4998883;28;20458;-78
2021/04/15 08:32:09;;;;;;;12.90;10.82;;;;;;;;;;4998618;28;20183;-80
2021/04/15 08:34:49;;;;;;;12.77;11.50;;;;;;;;;;5005404;28;20190;-80
2021/04/15 08:37:37;;;;;;;13.57;11.75;;;;;;;;;;5005558;28;20183;-77
2021/04/15 08:40:16;;;;;;;13.85;10.07;;;;;;;;;;5004515;28;20206;-82
2021/04/15 08:42:50;;;;;;;17.00;11.82;;;;;;;;;;5005780;28;20214;-78
2021/04/15 08:45:35;;;;;;;12.60;9.70;;;;;;;;;;5005370;28;20209;-80
2021/04/15 08:48:22;;;;;;;11.15;10.15;;;;;;;;;;5017104;28;20626;-80
2021/04/15 08:50:52;;;;;;;13.40;12.10;;;;;;;;;;4997902;28;20190;-81
2021/04/15 08:53:37;;;;;;;11.75;10.60;;;;;;;;;;5004902;28;20194;-80
2021/04/15 08:56:21;;;;;;;14.10;11.23;;;;;;;;;;5001617;28;20194;-79
2021/04/15 08:59:10;;;;;;;13.23;9.55;;;;;;;;;;5004604;28;20194;-80
2021/04/15 09:01:53;;;;;;;12.18;10.35;;;;;;;;;;5001883;28;20202;-88
2021/04/15 09:04:23;;;;;;;11.15;10.00;;;;;;;;;;5000313;28;20210;-80
2021/04/15 09:07:07;;;;;;;13.52;10.57;;;;;;;;;;4994456;28;20187;-81
2021/04/15 09:09:48;;;;;;;10.15;8.55;;;;;;;;;;5003958;28;20187;-85
2021/04/15 09:12:18;;;;;;;10.90;9.68;;;;;;;;;;4998372;28;20652;-82
2021/04/15 09:14:56;;;;;;;10.82;9.73;;;;;;;;;;4996123;28;20188;-80
2021/04/15 09:17:34;;;;;;;10.85;9.57;;;;;;;;;;4999102;28;20250;-81
2021/04/15 09:20:22;;;;;;;10.68;9.13;;;;;;;;;;4991998;28;20183;-81
2021/04/15 09:23:07;;;;;;;8.65;7.75;;;;;;;;;;5001330;28;20209;-83
2021/04/15 09:25:51;;;;;;;11.23;8.73;;;;;;;;;;4997256;28;20182;-82
2021/04/15 09:28:39;;;;;;;9.30;8.18;;;;;;;;;;5000866;28;20304;-82
2021/04/15 09:31:08;;;;;;;9.93;8.95;;;;;;;;;;5014251;28;20191;-83
2021/04/15 09:33:40;;;;;;;10.80;9.57;;;;;;;;;;5000554;28;20187;-82
2021/04/15 09:36:06;;;;;;;10.93;8.85;;;;;;;;;;5002114;28;20680;-81
2021/04/15 09:38:47;;;;;;;10.60;8.40;;;;;;;;;;5012975;28;20191;-82
2021/04/15 09:41:16;;;;;;;9.13;8.23;;;;;;;;;;5012947;28;20177;-80
2021/04/15 09:43:42;;;;;;;9.55;8.55;;;;;;;;;;5003871;28;20175;-81
2021/04/15 09:46:08;;;;;;;9.52;8.15;;;;;;;;;;4996431;28;20183;-83
2021/04/15 09:48:46;;;;;;;10.50;9.07;;;;;;;;;;4997947;28;20183;-86
2021/04/15 09:51:31;;;;;;;9.85;8.05;;;;;;;;;;5007496;28;20450;-84
2021/04/15 09:54:13;;;;;;;8.98;7.40;;;;;;;;;;5004320;28;20198;-81
2021/04/15 09:56:58;;;;;;;8.70;7.20;;;;;;;;;;5003203;28;20190;-81
2021/04/15 09:59:24;;;;;;;10.65;7.82;;;;;;;;;;4993979;28;20548;-81
2021/04/15 10:01:50;;;;;;;8.43;7.60;;;;;;;;;;5018993;28;20199;-82
2021/04/15 10:04:23;;;;;;;8.27;7.47;;;;;;;;;;4997733;28;20639;-81
2021/04/15 10:06:52;;;;;;;8.30;7.47;;;;;;;;;;5000597;28;20504;-82
2021/04/15 10:09:21;;;;;;;8.60;6.50;;;;;;;;;;5000735;28;20183;-85
2021/04/15 10:11:50;;;;;;;6.47;5.95;;;;;;;;;;5000383;28;20197;-82
2021/04/15 10:14:16;;;;;;;5.45;4.90;;;;;;;;;;5002657;28;24963;-86
2021/04/15 10:16:46;;;;;;;10.33;6.07;;;;;;;;;;5004029;28;20637;-84
2021/04/15 10:19:18;;;;;;;7.68;6.30;;;;;;;;;;4997753;28;20449;-84
2021/04/15 10:21:50;;;;;;;6.60;5.80;;;;;;;;;;4998618;28;20275;-84
2021/04/15 10:24:30;;;;;;;6.40;5.70;;;;;;;;;;4991895;28;20179;-88
2021/04/15 10:27:22;;;;;;;5.72;5.22;;;;;;;;;;5000542;28;20179;-84
2021/04/15 10:30:07;;;;;;;6.13;5.30;;;;;;;;;;5014095;28;20249;-84
2021/04/15 10:32:33;;;;;;;5.40;5.00;;;;;;;;;;5001099;28;20218;-85
2021/04/15 10:35:08;;;;;;;6.25;4.80;;;;;;;;;;5002576;28;20190;-84
2021/04/15 10:37:53;;;;;;;6.63;4.80;;;;;;;;;;4995969;28;20250;-86
2021/04/15 10:40:34;;;;;;;5.82;4.95;;;;;;;;;;4997775;28;20248;-83
2021/04/15 10:43:19;;;;;;;5.78;5.18;;;;;;;;;;5000636;28;20210;-84
2021/04/15 10:45:57;;;;;;;6.22;5.20;;;;;;;;;;5001608;28;20186;-86
2021/04/15 10:48:26;;;;;;;6.60;6.00;;;;;;;;;;5016314;28;20186;-84
2021/04/15 10:51:01;;;;;;;6.80;5.40;;;;;;;;;;5002782;28;20199;-81
2021/04/15 10:53:33;;;;;;;6.10;4.88;;;;;;;;;;4999727;28;20178;-83
2021/04/15 10:56:08;;;;;;;5.78;5.28;;;;;;;;;;5004337;28;20261;-83
2021/04/15 10:58:38;;;;;;;6.50;5.57;;;;;;;;;;4998931;28;20246;-86
2021/04/15 11:01:20;;;;;;;6.10;5.05;;;;;;;;;;4997391;28;20187;-86
2021/04/15 11:03:46;;;;;;;5.80;5.18;;;;;;;;;;5002073;28;20191;-86
2021/04/15 11:06:28;;;;;;;7.40;5.35;;;;;;;;;;5002088;28;20604;-84
2021/04/15 11:08:54;;;;;;;5.55;5.05;;;;;;;;;;5004546;28;20218;-87
2021/04/15 11:11:24;;;;;;;5.57;5.07;;;;;;;;;;5003684;28;20194;-84
2021/04/15 11:14:00;;;;;;;6.25;4.63;;;;;;;;;;4992036;28;20234;-80
2021/04/15 11:16:27;;;;;;;7.18;5.55;;;;;;;;;;5000697;28;20629;-87
2021/04/15 11:18:53;;;;;;;5.85;5.15;;;;;;;;;;5021453;28;20194;-85
2021/04/15 11:21:23;;;;;;;5.35;4.85;;;;;;;;;;5001979;28;20189;-90
2021/04/15 11:23:50;;;;;;;4.95;4.55;;;;;;;;;;4996748;28;20182;-87
2021/04/15 11:26:19;;;;;;;7.25;5.40;;;;;;;;;;4996438;28;20206;-89
2021/04/15 11:28:49;;;;;;;5.05;4.65;;;;;;;;;;5004005;28;20219;-86
2021/04/15 11:31:15;;;;;;;6.38;4.72;;;;;;;;;;5001565;28;20183;-88
2021/04/15 11:33:44;;;;;;;5.65;5.15;;;;;;;;;;5002213;28;20673;-84
2021/04/15 11:36:10;;;;;;;6.32;4.40;;;;;;;;;;5011142;28;20195;-86
2021/04/15 11:38:36;;;;;;;3.67;3.37;;;;;;;;;;5005228;28;20179;-86
2021/04/15 11:41:11;;;;;;;4.25;3.65;;;;;;;;;;5004217;28;20450;-82
2021/04/15 11:43:38;;;;;;;4.55;4.07;;;;;;;;;;5002066;28;20183;-87
2021/04/15 11:46:30;;;;;;;6.72;3.42;;;;;;;;;;4999390;28;20194;-84
2021/04/15 11:49:05;;;;;;;6.95;4.13;;;;;;;;;;5001908;28;20215;-82
2021/04/15 11:51:37;;;;;;;5.20;4.18;;;;;;;;;;5000029;28;20266;-82
2021/04/15 11:54:03;;;;;;;6.25;4.00;;;;;;;;;;5001509;28;20668;-84
2021/04/15 11:56:32;;;;;;;4.93;3.17;;;;;;;;;;5000755;28;20202;-82
2021/04/15 11:59:16;;;;;;;3.88;3.47;;;;;;;;;;5004964;28;20179;-83
2021/04/15 12:01:43;;;;;;;4.82;4.15;;;;;;;;;;4992721;28;20294;-82
2021/04/15 12:04:13;;;;;;;5.60;4.75;;;;;;;;;;4999137;28;20191;-87
2021/04/15 12:06:41;;;;;;;3.95;3.60;;;;;;;;;;4997963;28;20241;-83
2021/04/15 12:09:10;;;;;;;8.07;6.35;;;;;;;;;;5000194;28;20179;-84
2021/04/15 12:11:38;;;;;;;5.55;4.95;;;;;;;;;;5015611;28;20533;-80
2021/04/15 12:14:10;;;;;;;5.65;4.50;;;;;;;;;;5004226;28;20238;-84
2021/04/15 12:16:45;;;;;;;5.60;4.40;;;;;;;;;;4989585;28;20214;-83
2021/04/15 12:19:14;;;;;;;5.80;4.20;;;;;;;;;;5005108;28;20245;-83
2021/04/15 12:21:49;;;;;;;9.45;6.40;;;;;;;;;;5002172;28;20238;-83
2021/04/15 12:24:20;;;;;;;4.95;3.88;;;;;;;;;;5003032;28;20182;-86
2021/04/15 12:26:49;;;;;;;4.90;4.40;;;;;;;;;;5005965;28;20187;-83
2021/04/15 12:29:18;;;;;;;4.65;3.50;;;;;;;;;;5005480;28;20254;-83
2021/04/15 12:31:53;;;;;;;4.20;3.70;;;;;;;;;;4995398;28;20187;-84
2021/04/15 12:34:28;;;;;;;5.60;3.88;;;;;;;;;;4999649;28;20251;-82
2021/04/15 12:37:15;;;;;;;4.65;4.20;;;;;;;;;;4996033;28;20195;-85
2021/04/15 12:39:47;;;;;;;3.80;3.45;;;;;;;;;;5014863;28;20198;-80
2021/04/15 12:42:13;;;;;;;4.78;4.20;;;;;;;;;;5003944;28;20245;-85
2021/04/15 12:44:39;;;;;;;6.60;3.80;;;;;;;;;;5016969;28;20198;-83
2021/04/15 12:47:05;;;;;;;3.35;3.05;;;;;;;;;;4999359;28;20179;-82
2021/04/15 12:49:36;;;;;;;3.15;2.85;;;;;;;;;;4999560;28;20183;-82
2021/04/15 12:52:04;;;;;;;2.80;2.60;;;;;;;;;;5019518;28;20194;-84
2021/04/15 12:54:42;;;;;;;3.38;2.92;;;;;;;;;;5021980;28;20214;-89
2021/04/15 12:57:10;;;;;;;4.43;3.08;;;;;;;;;;4998233;28;20194;-86
2021/04/15 12:59:38;;;;;;;4.18;3.13;;;;;;;;;;5020211;28;20193;-85
2021/04/15 13:02:18;;;;;;;3.85;2.95;;;;;;;;;;5021485;28;20202;-83
2021/04/15 13:04:46;;;;;;;2.60;2.35;;;;;;;;;;5015525;28;20270;-84
2021/04/15 13:07:14;;;;;;;2.75;2.53;;;;;;;;;;5015239;28;20277;-89
2021/04/15 13:09:42;;;;;;;4.10;2.90;;;;;;;;;;5018521;28;20217;-85
2021/04/15 13:12:20;;;;;;;5.07;3.22;;;;;;;;;;5011485;28;20194;-84
2021/04/15 13:14:46;;;;;;;2.88;2.65;;;;;;;;;;5001872;28;20194;-80
2021/04/15 13:17:13;;;;;;;2.80;2.53;;;;;;;;;;5000119;28;20226;-83
2021/04/15 13:19:53;;;;;;;2.15;2.03;;;;;;;;;;4999857;28;20707;-87
2021/04/15 13:22:19;;;;;;;2.83;2.22;;;;;;;;;;4993714;28;20211;-87
2021/04/15 13:24:48;;;;;;;2.80;2.60;;;;;;;;;;4992671;28;20191;-85
2021/04/15 13:27:36;;;;;;;4.35;2.53;;;;;;;;;;5016939;28;20453;-86
2021/04/15 13:30:11;;;;;;;2.80;2.60;;;;;;;;;;4998929;28;20222;-82
2021/04/15 13:32:49;;;;;;;2.60;2.40;;;;;;;;;;5001471;28;20269;-84
2021/04/15 13:35:20;;;;;;;2.70;2.28;;;;;;;;;;4991707;28;20201;-86
2021/04/15 13:37:46;;;;;;;4.45;2.33;;;;;;;;;;5002029;28;20175;-84
2021/04/15 13:40:27;;;;;;;4.35;2.72;;;;;;;;;;4996480;28;20199;-81
2021/04/15 13:42:53;;;;;;;2.95;2.58;;;;;;;;;;4996243;28;20272;-86
2021/04/15 13:45:58;;;;;;;3.55;2.55;;;;;;;;;;4991733;28;20265;-90
2021/04/15 13:48:42;;;;;;;2.70;2.50;;;;;;;;;;5021418;28;20265;-83
2021/04/15 13:51:13;;;;;;;2.40;2.20;;;;;;;;;;5018194;28;20183;-85
2021/04/15 13:53:50;;;;;;;2.30;2.10;;;;;;;;;;5007046;28;20190;-81
2021/04/15 13:56:36;;;;;;;2.60;2.40;;;;;;;;;;5005285;28;20197;-84
2021/04/15 13:59:04;;;;;;;3.58;2.60;;;;;;;;;;5017700;28;20273;-79
2021/04/15 14:01:33;;;;;;;2.20;2.00;;;;;;;;;;5001976;28;20707;-81
2021/04/15 14:03:59;;;;;;;3.97;2.38;;;;;;;;;;5001736;28;20185;-84
2021/04/15 14:06:27;;;;;;;6.07;2.78;;;;;;;;;;5004220;28;20236;-86
2021/04/15 14:08:53;;;;;;;3.08;2.88;;;;;;;;;;5020736;28;20182;-83
2021/04/15 14:11:28;;;;;;;2.37;1.90;;;;;;;;;;5005260;28;20225;-82
2021/04/15 14:13:55;;;;;;;3.45;2.28;;;;;;;;;;5001145;28;20904;-89
2021/04/15 14:16:21;;;;;;;2.25;2.05;;;;;;;;;;5021532;28;20238;-82
2021/04/15 14:18:48;;;;;;;3.63;2.65;;;;;;;;;;5001092;28;20601;-81
2021/04/15 14:21:18;;;;;;;2.67;2.47;;;;;;;;;;4997029;28;20179;-88
2021/04/15 14:23:52;;;;;;;3.03;2.72;;;;;;;;;;5000330;28;20186;-84
2021/04/15 14:26:27;;;;;;;3.10;2.40;;;;;;;;;;4990108;28;20921;-84
2021/04/15 14:29:08;;;;;;;4.55;2.75;;;;;;;;;;5004787;28;20242;-86
2021/04/15 14:31:37;;;;;;;2.78;2.55;;;;;;;;;;5006930;28;20189;-85
2021/04/15 14:34:15;;;;;;;4.78;2.55;;;;;;;;;;4997767;28;20195;-83
2021/04/15 14:36:44;;;;;;;4.70;2.38;;;;;;;;;;4998832;28;20254;-87
2021/04/15 14:39:12;;;;;;;2.47;2.28;;;;;;;;;;4995215;28;20179;-88
2021/04/15 14:41:39;;;;;;;3.63;2.90;;;;;;;;;;4996745;28;20218;-81
2021/04/15 14:44:18;;;;;;;4.60;1.95;;;;;;;;;;4999212;28;20198;-83
2021/04/15 14:46:45;;;;;;;2.35;2.05;;;;;;;;;;4999923;28;20199;-85
2021/04/15 14:49:16;;;;;;;5.03;3.15;;;;;;;;;;4999856;28;20299;-84
2021/04/15 14:51:43;;;;;;;2.40;2.20;;;;;;;;;;4990419;28;20640;-86
2021/04/15 14:54:20;;;;;;;3.72;1.98;;;;;;;;;;4999633;28;20206;-84
2021/04/15 14:56:47;;;;;;;2.97;1.77;;;;;;;;;;4998618;28;20195;-79
2021/04/15 14:59:26;;;;;;;2.17;1.65;;;;;;;;;;5001734;28;20186;-79
2021/04/15 15:01:53;;;;;;;4.25;2.30;;;;;;;;;;5000098;28;20206;-83
2021/04/15 15:04:27;;;;;;;2.38;2.05;;;;;;;;;;4999145;28;20210;-85
2021/04/15 15:06:54;;;;;;;1.92;1.80;;;;;;;;;;4995440;28;20186;-87